createdAt,value
2019-04-20T00:00:55.079Z,9.38
2019-04-20T00:03:26.018Z,9.39
2019-04-20T00:05:51.409Z,9.37
2019-04-20T00:08:23.146Z,9.31
2019-04-20T00:10:52.989Z,9.29
2019-04-20T00:13:24.060Z,9.27
2019-04-20T00:15:44.994Z,9.24
2019-04-20T00:18:13.460Z,9.20
2019-04-20T00:20:51.400Z,9.18
2019-04-20T00:23:47.735Z,9.15
2019-04-20T00:26:56.268Z,9.15
2019-04-20T00:29:11.239Z,9.13
2019-04-20T00:31:39.317Z,9.15
2019-04-20T00:34:02.372Z,9.13
2019-04-20T00:36:20.163Z,9.11
2019-04-20T00:38:53.042Z,9.08
2019-04-20T00:41:18.582Z,9.06
2019-04-20T00:43:45.500Z,9.03
2019-04-20T00:46:22.147Z,8.97
2019-04-20T00:48:51.905Z,8.91
2019-04-20T00:51:31.612Z,8.87
2019-04-20T00:53:43.177Z,8.82
2019-04-20T00:56:07.535Z,8.79
2019-04-20T00:58:50.803Z,8.78
2019-04-20T01:01:20.623Z,8.79
2019-04-20T01:03:47.293Z,8.77
2019-04-20T01:06:36.850Z,8.75
2019-04-20T01:09:01.326Z,8.72
2019-04-20T01:11:33.968Z,8.68
2019-04-20T01:14:03.891Z,8.58
2019-04-20T01:16:35.354Z,8.50
2019-04-20T01:18:53.639Z,8.49
2019-04-20T01:21:24.811Z,8.42
2019-04-20T01:23:53.296Z,8.38
2019-04-20T01:26:19.676Z,8.32
2019-04-20T01:28:58.592Z,8.30
2019-04-20T01:31:25.389Z,8.24
2019-04-20T01:33:56.585Z,8.20
2019-04-20T01:36:33.421Z,8.16
2019-04-20T01:38:55.430Z,8.13
2019-04-20T01:41:09.603Z,8.09
2019-04-20T01:43:37.452Z,8.04
2019-04-20T01:46:11.327Z,7.99
2019-04-20T01:48:36.619Z,7.94
2019-04-20T01:51:07.329Z,7.89
2019-04-20T01:53:56.789Z,7.88
2019-04-20T01:56:17.172Z,7.82
2019-04-20T01:59:12.554Z,7.80
2019-04-20T02:01:39.640Z,7.78
2019-04-20T02:04:23.773Z,7.74
2019-04-20T02:06:48.843Z,7.72
2019-04-20T02:09:16.689Z,7.63
2019-04-20T02:11:43.095Z,7.59
2019-04-20T02:14:10.397Z,7.57
2019-04-20T02:16:42.691Z,7.55
2019-04-20T02:19:22.150Z,7.48
2019-04-20T02:21:51.452Z,7.43
2019-04-20T02:24:05.705Z,7.39
2019-04-20T02:26:30.670Z,7.35
2019-04-20T02:29:36.169Z,7.31
2019-04-20T02:32:13.165Z,7.29
2019-04-20T02:34:47.859Z,7.27
2019-04-20T02:37:45.113Z,7.25
2019-04-20T02:42:40.468Z,7.19
2019-04-20T02:45:01.345Z,7.14
2019-04-20T02:47:30.484Z,7.09
2019-04-20T02:49:51.437Z,7.03
2019-04-20T02:52:24.878Z,6.96
2019-04-20T02:54:46.727Z,6.91
2019-04-20T03:02:01.513Z,6.81
2019-04-20T03:04:20.533Z,6.78
2019-04-20T03:06:57.126Z,6.74
2019-04-20T03:09:33.020Z,6.66
2019-04-20T03:14:21.744Z,6.56
2019-04-20T03:16:50.385Z,6.51
2019-04-20T03:19:17.382Z,6.50
2019-04-20T03:21:54.834Z,6.50
2019-04-20T03:24:26.658Z,6.49
2019-04-20T03:26:54.673Z,6.48
2019-04-20T03:29:37.357Z,6.46
2019-04-20T03:34:55.589Z,6.37
2019-04-20T03:37:07.057Z,6.31
2019-04-20T03:39:28.904Z,6.30
2019-04-20T03:41:44.418Z,6.27
2019-04-20T03:44:12.578Z,6.25
2019-04-20T03:46:45.778Z,6.24
2019-04-20T03:49:28.079Z,6.18
2019-04-20T03:51:58.542Z,6.12
2019-04-20T03:54:19.933Z,6.09
2019-04-20T03:57:18.494Z,6.05
2019-04-20T03:59:48.440Z,5.99
2019-04-20T04:02:58.013Z,5.94
2019-04-20T04:05:20.003Z,5.90
2019-04-20T04:07:38.094Z,5.87
2019-04-20T04:10:14.371Z,5.86
2019-04-20T04:12:46.787Z,5.82
2019-04-20T04:15:13.032Z,5.78
2019-04-20T04:17:43.401Z,5.78
2019-04-20T04:20:13.090Z,5.77
2019-04-20T04:22:50.059Z,5.72
2019-04-20T04:25:18.433Z,5.69
2019-04-20T04:27:55.042Z,5.69
2019-04-20T04:30:18.309Z,5.93
2019-04-20T04:33:16.343Z,6.59
2019-04-20T04:35:14.137Z,7.36
2019-04-20T04:37:47.108Z,7.79
2019-04-20T04:40:27.305Z,8.28
2019-04-20T04:42:48.195Z,8.65
2019-04-20T04:45:00.594Z,9.06
2019-04-20T04:47:22.146Z,9.35
2019-04-20T04:49:58.159Z,9.26
2019-04-20T04:52:27.425Z,8.96
2019-04-20T04:54:53.752Z,8.69
2019-04-20T04:57:15.658Z,8.50
2019-04-20T04:59:42.586Z,8.36
2019-04-20T05:02:09.697Z,8.22
2019-04-20T05:05:18.003Z,8.07
2019-04-20T05:07:51.446Z,7.95
2019-04-20T05:10:37.067Z,7.91
2019-04-20T05:13:04.913Z,7.90
2019-04-20T05:15:55.545Z,7.90
2019-04-20T05:18:42.025Z,7.82
2019-04-20T05:21:04.400Z,7.74
2019-04-20T05:23:53.524Z,7.59
2019-04-20T05:26:55.615Z,7.52
2019-04-20T05:29:14.120Z,7.65
2019-04-20T05:31:49.342Z,7.75
2019-04-20T05:34:38.689Z,7.89
2019-04-20T05:37:20.900Z,8.03
2019-04-20T05:39:50.129Z,8.10
2019-04-20T05:42:32.778Z,8.18
2019-04-20T05:44:55.964Z,8.23
2019-04-20T05:47:36.115Z,8.40
2019-04-20T05:50:05.069Z,8.48
2019-04-20T05:52:58.309Z,8.67
2019-04-20T05:55:20.821Z,8.81
2019-04-20T05:58:03.528Z,9.02
2019-04-20T06:00:37.441Z,9.24
2019-04-20T06:03:09.507Z,9.38
2019-04-20T06:05:53.668Z,9.53
2019-04-20T06:08:32.059Z,9.66
2019-04-20T06:10:55.982Z,9.80
2019-04-20T06:13:43.111Z,9.99
2019-04-20T06:16:50.995Z,10.18
2019-04-20T06:19:26.345Z,10.43
2019-04-20T06:22:06.392Z,10.68
2019-04-20T06:25:17.071Z,10.74
2019-04-20T06:27:40.029Z,10.78
2019-04-20T06:30:11.074Z,10.81
2019-04-20T06:33:19.040Z,10.85
2019-04-20T06:36:07.517Z,10.91
2019-04-20T06:38:46.630Z,11.04
2019-04-20T06:41:06.334Z,11.15
2019-04-20T06:43:36.695Z,11.24
2019-04-20T06:46:12.958Z,11.25
2019-04-20T06:48:47.096Z,11.26
2019-04-20T06:51:23.641Z,11.26
2019-04-20T06:53:57.085Z,11.30
2019-04-20T06:56:35.810Z,11.37
2019-04-20T06:59:12.601Z,11.43
2019-04-20T07:01:44.494Z,11.48
2019-04-20T07:04:26.477Z,11.53
2019-04-20T07:06:54.149Z,11.55
2019-04-20T07:09:26.246Z,11.60
2019-04-20T07:11:50.530Z,11.68
2019-04-20T07:14:17.247Z,11.77
2019-04-20T07:17:36.067Z,11.86
2019-04-20T07:20:16.005Z,11.97
2019-04-20T07:25:47.833Z,12.19
2019-04-20T07:28:36.890Z,12.35
2019-04-20T07:31:03.069Z,12.47
2019-04-20T07:33:42.385Z,12.58
2019-04-20T07:36:22.141Z,12.68
2019-04-20T07:39:03.728Z,12.76
2019-04-20T07:41:33.151Z,12.84
2019-04-20T07:44:04.648Z,12.94
2019-04-20T07:46:47.169Z,13.02
2019-04-20T07:49:07.433Z,13.06
2019-04-20T07:51:32.100Z,13.13
2019-04-20T07:54:33.358Z,13.30
2019-04-20T07:56:53.794Z,13.47
2019-04-20T07:59:26.494Z,13.67
2019-04-20T08:05:15.412Z,14.07
2019-04-20T08:07:44.746Z,14.28
2019-04-20T08:13:19.378Z,14.53
2019-04-20T08:15:58.355Z,14.63
2019-04-20T08:18:16.821Z,14.80
2019-04-20T08:20:53.523Z,14.95
2019-04-20T08:23:23.633Z,15.07
2019-04-20T08:25:49.778Z,15.15
2019-04-20T08:28:29.396Z,15.23
2019-04-20T08:31:30.127Z,15.36
2019-04-20T08:34:20.240Z,15.49
2019-04-20T08:36:53.963Z,15.63
2019-04-20T08:39:38.134Z,15.79
2019-04-20T08:42:05.824Z,15.95
2019-04-20T08:47:37.797Z,16.25
2019-04-20T08:55:43.787Z,16.55
2019-04-20T08:58:02.171Z,16.67
2019-04-20T09:00:42.964Z,16.81
2019-04-20T09:03:19.361Z,16.89
2019-04-20T09:05:58.961Z,17.02
2019-04-20T09:08:31.796Z,17.12
2019-04-20T09:11:15.375Z,17.28
2019-04-20T09:13:43.239Z,17.43
2019-04-20T09:16:13.251Z,17.52
2019-04-20T09:18:49.381Z,17.59
2019-04-20T09:21:27.347Z,17.72
2019-04-20T09:29:35.843Z,18.16
2019-04-20T09:35:00.123Z,18.51
2019-04-20T09:37:54.415Z,18.70
2019-04-20T09:43:21.721Z,18.95
2019-04-20T09:46:03.624Z,19.07
2019-04-20T09:48:41.859Z,19.19
2019-04-20T09:51:25.796Z,19.29
2019-04-20T09:53:55.030Z,19.45
2019-04-20T09:56:34.536Z,19.64
2019-04-20T09:59:12.235Z,19.83
2019-04-20T10:01:38.102Z,19.90
2019-04-20T10:04:05.448Z,20.01
2019-04-20T10:06:43.575Z,20.12
2019-04-20T10:09:21.258Z,20.31
2019-04-20T10:11:53.270Z,20.53
2019-04-20T10:14:20.124Z,20.88
2019-04-20T10:16:47.415Z,21.12
2019-04-20T10:19:26.656Z,21.31
2019-04-20T10:21:56.971Z,21.67
2019-04-20T10:24:32.662Z,21.94
2019-04-20T10:27:06.414Z,22.14
2019-04-20T10:29:33.627Z,22.39
2019-04-20T10:32:05.712Z,22.73
2019-04-20T10:34:35.007Z,23.06
2019-04-20T10:37:15.623Z,23.34
2019-04-20T10:39:50.024Z,23.52
2019-04-20T10:42:16.656Z,23.83
2019-04-20T10:44:43.324Z,24.08
2019-04-20T10:47:11.206Z,24.24
2019-04-20T10:49:45.100Z,24.51
2019-04-20T10:52:11.762Z,24.66
2019-04-20T10:54:38.514Z,25.05
2019-04-20T10:57:05.735Z,25.29
2019-04-20T10:59:41.459Z,25.42
2019-04-20T11:02:16.045Z,25.34
2019-04-20T11:04:50.643Z,25.42
2019-04-20T11:07:26.367Z,25.47
2019-04-20T11:10:07.930Z,25.58
2019-04-20T11:12:28.667Z,25.59
2019-04-20T11:14:56.448Z,25.67
2019-04-20T11:17:24.343Z,25.96
2019-04-20T11:19:51.625Z,26.21
2019-04-20T11:22:18.426Z,26.48
2019-04-20T11:24:46.113Z,26.71
2019-04-20T11:27:14.018Z,26.76
2019-04-20T11:29:42.162Z,26.89
2019-04-20T11:32:09.661Z,27.06
2019-04-20T11:34:40.179Z,27.00
2019-04-20T11:37:06.910Z,26.88
2019-04-20T11:39:34.898Z,26.87
2019-04-20T11:42:09.982Z,26.89
2019-04-20T11:44:38.138Z,27.10
2019-04-20T11:47:08.506Z,26.95
2019-04-20T11:49:35.455Z,27.15
2019-04-20T11:52:03.506Z,27.21
2019-04-20T11:54:30.472Z,27.57
2019-04-20T11:56:57.446Z,27.42
2019-04-20T11:59:25.342Z,27.53
2019-04-20T12:02:27.919Z,27.57
2019-04-20T12:05:10.048Z,27.63
2019-04-20T12:07:24.918Z,27.69
2019-04-20T12:09:51.738Z,27.29
2019-04-20T12:12:32.187Z,27.54
2019-04-20T12:14:48.388Z,27.47
2019-04-20T12:17:15.603Z,27.44
2019-04-20T12:19:43.754Z,27.57
2019-04-20T12:22:11.788Z,27.81
2019-04-20T12:24:38.569Z,27.93
2019-04-20T12:27:05.269Z,28.01
2019-04-20T12:29:32.145Z,27.76
2019-04-20T12:32:02.232Z,27.62
2019-04-20T12:34:28.590Z,27.85
2019-04-20T12:36:55.438Z,27.63
2019-04-20T12:39:22.485Z,27.66
2019-04-20T12:41:53.711Z,27.92
2019-04-20T12:44:17.806Z,28.04
2019-04-20T12:46:45.766Z,28.01
2019-04-20T12:49:13.666Z,27.96
2019-04-20T12:51:49.928Z,27.73
2019-04-20T12:54:08.990Z,27.86
2019-04-20T12:56:35.635Z,28.13
2019-04-20T12:59:03.248Z,28.34
2019-04-20T13:01:30.242Z,28.32
2019-04-20T13:03:57.395Z,28.42
2019-04-20T13:06:24.111Z,28.50
2019-04-20T13:08:53.832Z,28.66
2019-04-20T13:11:23.039Z,28.77
2019-04-20T13:14:16.983Z,28.99
2019-04-20T13:16:44.093Z,29.10
2019-04-20T13:19:11.128Z,29.24
2019-04-20T13:21:39.063Z,29.38
2019-04-20T13:24:07.004Z,29.12
2019-04-20T13:26:35.107Z,29.17
2019-04-20T13:29:02.328Z,29.17
2019-04-20T13:31:29.707Z,29.55
2019-04-20T13:33:57.176Z,29.48
2019-04-20T13:36:24.289Z,29.72
2019-04-20T13:38:52.246Z,29.76
2019-04-20T13:41:19.870Z,29.77
2019-04-20T13:43:47.972Z,29.83
2019-04-20T13:46:15.125Z,29.46
2019-04-20T13:48:42.854Z,29.40
2019-04-20T13:51:09.941Z,29.25
2019-04-20T13:53:37.173Z,29.22
2019-04-20T13:56:04.119Z,29.14
2019-04-20T13:58:47.745Z,29.67
2019-04-20T14:01:34.763Z,30.05
2019-04-20T14:04:14.807Z,30.25
2019-04-20T14:06:41.838Z,30.25
2019-04-20T14:09:09.756Z,30.24
2019-04-20T14:11:36.549Z,30.38
2019-04-20T14:14:05.387Z,30.03
2019-04-20T14:16:31.771Z,30.17
2019-04-20T14:18:58.771Z,30.27
2019-04-20T14:21:26.060Z,30.50
2019-04-20T14:23:53.070Z,30.46
2019-04-20T14:26:20.985Z,30.41
2019-04-20T14:28:48.940Z,30.37
2019-04-20T14:31:16.135Z,30.34
2019-04-20T14:33:42.924Z,30.14
2019-04-20T14:36:10.728Z,30.44
2019-04-20T14:38:38.326Z,30.31
2019-04-20T14:41:06.418Z,30.63
2019-04-20T14:43:34.668Z,30.76
2019-04-20T14:46:03.034Z,30.74
2019-04-20T14:48:31.070Z,30.96
2019-04-20T14:50:59.277Z,30.94
2019-04-20T14:53:27.364Z,30.52
2019-04-20T14:55:55.455Z,29.97
2019-04-20T14:58:57.639Z,30.35
2019-04-20T15:01:30.319Z,30.46
2019-04-20T15:04:04.270Z,30.39
2019-04-20T15:06:25.765Z,30.53
2019-04-20T15:08:52.647Z,30.86
2019-04-20T15:11:19.340Z,30.67
2019-04-20T15:13:46.855Z,30.45
2019-04-20T15:16:14.902Z,30.62
2019-04-20T15:18:48.303Z,30.88
2019-04-20T15:21:15.472Z,30.80
2019-04-20T15:23:43.595Z,30.80
2019-04-20T15:26:10.717Z,30.70
2019-04-20T15:28:38.626Z,30.33
2019-04-20T15:31:06.004Z,30.29
2019-04-20T15:33:32.966Z,30.52
2019-04-20T15:36:00.046Z,30.37
2019-04-20T15:38:27.150Z,30.18
2019-04-20T15:40:55.224Z,30.27
2019-04-20T15:43:25.862Z,30.46
2019-04-20T15:45:51.594Z,30.41
2019-04-20T15:48:19.786Z,30.42
2019-04-20T15:50:47.782Z,30.03
2019-04-20T15:53:15.603Z,30.09
2019-04-20T15:55:43.909Z,29.90
2019-04-20T15:58:12.211Z,29.59
2019-04-20T16:00:40.411Z,29.44
2019-04-20T16:03:17.175Z,29.60
2019-04-20T16:05:47.323Z,29.53
2019-04-20T16:08:32.405Z,29.38
2019-04-20T16:10:59.594Z,29.16
2019-04-20T16:13:35.216Z,28.94
2019-04-20T16:15:56.026Z,28.81
2019-04-20T16:18:23.090Z,28.60
2019-04-20T16:20:59.404Z,28.64
2019-04-20T16:23:18.698Z,28.65
2019-04-20T16:25:49.944Z,28.79
2019-04-20T16:28:17.377Z,28.61
2019-04-20T16:30:45.397Z,28.31
2019-04-20T16:33:12.474Z,27.98
2019-04-20T16:35:40.461Z,27.73
2019-04-20T16:38:08.611Z,27.75
2019-04-20T16:40:35.687Z,27.68
2019-04-20T16:43:06.277Z,27.57
2019-04-20T16:45:31.118Z,27.56
2019-04-20T16:47:59.731Z,27.37
2019-04-20T16:50:26.867Z,26.94
2019-04-20T16:52:54.845Z,26.77
2019-04-20T16:55:22.876Z,26.60
2019-04-20T16:57:51.207Z,26.58
2019-04-20T17:00:18.232Z,26.39
2019-04-20T17:02:44.858Z,26.18
2019-04-20T17:05:11.538Z,26.05
2019-04-20T17:07:42.979Z,25.91
2019-04-20T17:10:11.734Z,25.59
2019-04-20T17:12:46.041Z,25.44
2019-04-20T17:15:21.503Z,25.26
2019-04-20T17:17:57.180Z,24.91
2019-04-20T17:20:30.773Z,24.55
2019-04-20T17:22:58.360Z,24.23
2019-04-20T17:25:32.636Z,23.86
2019-04-20T17:28:18.822Z,23.47
2019-04-20T17:30:59.260Z,23.15
2019-04-20T17:33:50.519Z,22.68
2019-04-20T17:36:18.797Z,22.22
2019-04-20T17:38:52.534Z,21.80
2019-04-20T17:41:43.201Z,21.47
2019-04-20T17:44:16.549Z,21.14
2019-04-20T17:46:43.935Z,20.83
2019-04-20T17:49:21.278Z,20.58
2019-04-20T17:52:05.101Z,20.36
2019-04-20T17:57:15.137Z,20.06
2019-04-20T18:03:02.056Z,19.79
2019-04-20T18:05:46.622Z,19.52
2019-04-20T18:08:20.529Z,19.31
2019-04-20T18:10:47.251Z,19.09
2019-04-20T18:13:16.579Z,18.84
2019-04-20T18:18:52.923Z,18.31
2019-04-20T18:21:21.512Z,17.99
2019-04-20T18:23:50.326Z,17.67
2019-04-20T18:26:45.562Z,17.41
2019-04-20T18:29:16.678Z,17.11
2019-04-20T18:31:53.364Z,16.85
2019-04-20T18:34:36.506Z,16.62
2019-04-20T18:37:08.256Z,16.41
2019-04-20T18:39:43.786Z,16.19
2019-04-20T18:42:21.878Z,16.01
2019-04-20T18:45:09.137Z,15.80
2019-04-20T18:47:39.122Z,15.64
2019-04-20T18:50:09.500Z,15.44
2019-04-20T18:52:33.747Z,15.24
2019-04-20T18:55:17.326Z,15.09
2019-04-20T18:57:44.561Z,14.95
2019-04-20T19:00:45.380Z,14.81
2019-04-20T19:03:20.236Z,14.69
2019-04-20T19:05:49.656Z,14.57
2019-04-20T19:08:17.544Z,14.44
2019-04-20T19:11:01.529Z,14.34
2019-04-20T19:13:49.838Z,14.20
2019-04-20T19:16:58.102Z,14.10
2019-04-20T19:19:30.208Z,14.03
2019-04-20T19:21:56.340Z,14.02
2019-04-20T19:24:27.445Z,14.08
2019-04-20T19:27:03.502Z,14.23
2019-04-20T19:29:40.427Z,14.20
2019-04-20T19:32:24.972Z,14.03
2019-04-20T19:34:54.934Z,13.86
2019-04-20T19:37:26.307Z,13.70
2019-04-20T19:40:06.724Z,13.55
2019-04-20T19:42:43.474Z,13.41
2019-04-20T19:45:31.749Z,13.28
2019-04-20T19:47:54.725Z,13.14
2019-04-20T19:53:16.532Z,12.86
2019-04-20T19:55:39.706Z,12.73
2019-04-20T19:58:11.136Z,12.63
2019-04-20T20:03:50.645Z,12.39
2019-04-20T20:06:30.542Z,12.28
2019-04-20T20:09:00.549Z,12.18
2019-04-20T20:11:34.038Z,12.08
2019-04-20T20:14:09.097Z,11.99
2019-04-20T20:17:01.491Z,11.90
2019-04-20T20:19:35.559Z,11.82
2019-04-20T20:22:04.504Z,11.71
2019-04-20T20:24:25.259Z,11.63
2019-04-20T20:26:58.457Z,11.55
2019-04-20T20:29:34.283Z,11.48
2019-04-20T20:32:15.615Z,11.36
2019-04-20T20:34:42.212Z,11.27
2019-04-20T20:37:27.220Z,11.19
2019-04-20T20:39:58.437Z,11.09
2019-04-20T20:42:32.976Z,11.01
2019-04-20T20:48:15.465Z,10.89
2019-04-20T20:50:48.875Z,10.81
2019-04-20T20:53:18.528Z,10.73
2019-04-20T20:55:53.418Z,10.67
2019-04-20T20:58:36.116Z,10.60
2019-04-20T21:01:09.461Z,10.51
2019-04-20T21:03:38.529Z,10.43
2019-04-20T21:06:11.672Z,10.31
2019-04-20T21:08:51.691Z,10.24
2019-04-20T21:11:26.221Z,10.16
2019-04-20T21:13:56.232Z,10.10
2019-04-20T21:16:33.581Z,10.01
2019-04-20T21:19:21.165Z,9.98
2019-04-20T21:21:49.948Z,9.93
2019-04-20T21:24:21.583Z,9.88
2019-04-20T21:26:55.748Z,9.83
2019-04-20T21:29:35.590Z,9.78
2019-04-20T21:32:10.426Z,9.73
2019-04-20T21:34:44.507Z,9.67
2019-04-20T21:37:18.935Z,9.64
2019-04-20T21:39:55.330Z,9.60
2019-04-20T21:42:28.200Z,9.53
2019-04-20T21:45:07.028Z,9.44
2019-04-20T21:47:39.281Z,9.34
2019-04-20T21:50:28.305Z,9.28
2019-04-20T21:52:50.596Z,9.22
2019-04-20T21:55:21.673Z,9.14
2019-04-20T21:57:59.045Z,9.11
2019-04-20T22:01:03.846Z,9.08
2019-04-20T22:03:25.003Z,9.04
2019-04-20T22:06:04.738Z,9.00
2019-04-20T22:08:32.710Z,8.95
2019-04-20T22:11:06.529Z,8.87
2019-04-20T22:13:38.037Z,8.80
2019-04-20T22:16:11.014Z,8.74
2019-04-20T22:18:53.024Z,8.68
2019-04-20T22:21:53.421Z,8.60
2019-04-20T22:24:32.885Z,8.54
2019-04-20T22:27:05.110Z,8.46
2019-04-20T22:29:28.126Z,8.43
2019-04-20T22:32:00.475Z,8.40
2019-04-20T22:34:34.969Z,8.38
2019-04-20T22:37:14.054Z,8.37
2019-04-20T22:39:50.808Z,8.33
2019-04-20T22:42:22.216Z,8.28
2019-04-20T22:45:01.950Z,8.26
2019-04-20T22:47:32.683Z,8.21
2019-04-20T22:50:18.781Z,8.22
2019-04-20T22:52:55.974Z,8.23
2019-04-20T22:56:01.255Z,8.27
2019-04-20T22:58:28.855Z,8.28
2019-04-20T23:00:56.137Z,8.28
2019-04-20T23:03:25.023Z,8.26
2019-04-20T23:06:00.658Z,8.22
2019-04-20T23:08:35.025Z,8.17
2019-04-20T23:11:04.667Z,8.11
2019-04-20T23:13:36.907Z,8.03
2019-04-20T23:16:01.960Z,7.92
2019-04-20T23:18:28.490Z,7.91
2019-04-20T23:21:01.342Z,7.88
2019-04-20T23:23:28.850Z,7.82
2019-04-20T23:25:53.747Z,7.80
2019-04-20T23:28:22.440Z,7.78
2019-04-20T23:30:51.918Z,7.72
2019-04-20T23:33:18.033Z,7.64
2019-04-20T23:35:51.939Z,7.58
2019-04-20T23:38:18.002Z,7.53
2019-04-20T23:40:41.836Z,7.49
2019-04-20T23:43:23.356Z,7.44
2019-04-20T23:46:17.020Z,7.44
2019-04-20T23:48:46.496Z,7.37
2019-04-20T23:51:36.984Z,7.31
2019-04-20T23:53:54.374Z,7.25
2019-04-20T23:56:14.975Z,7.22
2019-04-20T23:58:44.332Z,7.19
